createdAt,value
2023-01-21T00:00:56.957Z,101015.84
2023-01-21T00:03:24.550Z,101009.17
2023-01-21T00:05:52.115Z,101008.92
2023-01-21T00:08:19.228Z,101009.78
2023-01-21T00:10:46.352Z,101002.44
2023-01-21T00:13:13.542Z,101005.80
2023-01-21T00:15:40.785Z,101004.33
2023-01-21T00:18:08.142Z,101011.41
2023-01-21T00:20:35.795Z,101009.98
2023-01-21T00:23:02.943Z,101009.39
2023-01-21T00:25:30.115Z,100999.13
2023-01-21T00:27:58.892Z,101000.95
2023-01-21T00:30:26.863Z,100991.33
2023-01-21T00:32:54.174Z,100989.75
2023-01-21T00:35:21.266Z,100985.34
2023-01-21T00:37:49.944Z,100989.30
2023-01-21T00:40:17.353Z,100986.98
2023-01-21T00:42:44.473Z,100979.73
2023-01-21T00:45:11.700Z,100974.55
2023-01-21T00:47:38.821Z,100985.68
2023-01-21T00:50:06.818Z,100974.95
2023-01-21T00:52:33.918Z,100977.60
2023-01-21T00:55:00.951Z,100966.98
2023-01-21T00:57:28.678Z,100969.58
2023-01-21T00:59:55.875Z,100966.02
2023-01-21T01:02:23.039Z,100970.50
2023-01-21T01:04:50.232Z,100966.10
2023-01-21T01:07:17.281Z,100960.98
2023-01-21T01:09:44.429Z,100955.63
2023-01-21T01:12:11.446Z,100966.83
2023-01-21T01:14:38.531Z,100976.35
2023-01-21T01:17:05.679Z,100983.19
2023-01-21T01:19:32.831Z,100975.49
2023-01-21T01:21:59.835Z,100972.73
2023-01-21T01:24:26.953Z,100971.77
2023-01-21T01:26:54.077Z,100968.12
2023-01-21T01:29:21.224Z,100968.55
2023-01-21T01:31:48.414Z,100961.00
2023-01-21T01:34:15.985Z,100965.10
2023-01-21T01:36:43.182Z,100961.14
2023-01-21T01:39:10.355Z,100972.45
2023-01-21T01:41:37.497Z,100984.14
2023-01-21T01:44:06.380Z,100979.89
2023-01-21T01:46:35.854Z,100972.50
2023-01-21T01:49:13.592Z,100969.69
2023-01-21T01:51:43.148Z,100967.14
2023-01-21T01:54:10.746Z,100966.25
2023-01-21T01:56:38.196Z,100964.80
2023-01-21T01:59:05.348Z,100960.88
2023-01-21T02:01:32.521Z,100957.44
2023-01-21T02:04:00.999Z,100952.81
2023-01-21T02:06:28.153Z,100956.05
2023-01-21T02:08:55.358Z,100953.31
2023-01-21T02:11:22.564Z,100943.14
2023-01-21T02:13:53.512Z,100943.15
2023-01-21T02:16:51.248Z,100943.41
2023-01-21T02:19:31.618Z,100933.90
2023-01-21T02:22:16.157Z,100940.10
2023-01-21T02:25:11.478Z,100931.16
2023-01-21T02:27:59.504Z,100937.67
2023-01-21T02:30:29.592Z,100939.52
2023-01-21T02:33:18.303Z,100936.27
2023-01-21T02:36:08.900Z,100932.48
2023-01-21T02:39:04.218Z,100930.42
2023-01-21T02:41:34.622Z,100927.66
2023-01-21T02:44:01.696Z,100926.34
2023-01-21T02:46:33.814Z,100932.55
2023-01-21T02:49:04.679Z,100934.29
2023-01-21T02:51:31.849Z,100930.48
2023-01-21T02:53:59.137Z,100932.84
2023-01-21T02:56:26.692Z,100936.84
2023-01-21T02:58:58.852Z,100934.47
2023-01-21T03:01:59.387Z,100934.02
2023-01-21T03:04:51.979Z,100938.88
2023-01-21T03:07:33.787Z,100936.63
2023-01-21T03:10:07.500Z,100943.19
2023-01-21T03:12:52.486Z,100941.04
2023-01-21T03:15:42.329Z,100939.48
2023-01-21T03:18:17.052Z,100949.12
2023-01-21T03:20:47.388Z,100956.55
2023-01-21T03:23:16.900Z,100957.83
2023-01-21T03:25:44.034Z,100954.39
2023-01-21T03:28:13.042Z,100949.08
2023-01-21T03:30:41.633Z,100951.86
2023-01-21T03:33:09.597Z,100947.63
2023-01-21T03:35:39.573Z,100941.20
2023-01-21T03:38:17.073Z,100938.16
2023-01-21T03:41:24.586Z,100940.17
2023-01-21T03:43:52.205Z,100946.84
2023-01-21T03:46:39.726Z,100946.24
2023-01-21T03:49:19.425Z,100946.75
2023-01-21T03:51:52.500Z,100947.40
2023-01-21T03:54:19.663Z,100947.13
2023-01-21T03:56:46.712Z,100946.39
2023-01-21T03:59:13.854Z,100950.80
2023-01-21T04:01:41.906Z,100959.38
2023-01-21T04:04:09.386Z,100960.04
2023-01-21T04:06:37.188Z,100959.69
2023-01-21T04:09:05.116Z,100960.05
2023-01-21T04:11:32.230Z,100960.20
2023-01-21T04:13:59.416Z,100965.36
2023-01-21T04:16:26.820Z,100967.53
2023-01-21T04:18:54.333Z,100969.70
2023-01-21T04:21:21.381Z,100970.74
2023-01-21T04:23:48.540Z,100965.09
2023-01-21T04:26:16.670Z,100963.90
2023-01-21T04:28:43.855Z,100964.01
2023-01-21T04:31:10.974Z,100956.63
2023-01-21T04:33:38.154Z,100964.66
2023-01-21T04:36:05.715Z,100968.39
2023-01-21T04:38:32.880Z,100970.81
2023-01-21T04:41:00.320Z,100974.29
2023-01-21T04:43:27.661Z,100976.27
2023-01-21T04:45:54.841Z,100984.04
2023-01-21T04:48:22.155Z,100992.95
2023-01-21T04:50:49.333Z,100997.94
2023-01-21T04:53:16.430Z,101010.81
2023-01-21T04:55:43.528Z,101013.71
2023-01-21T04:58:10.582Z,101021.30
2023-01-21T05:00:37.652Z,101029.30
2023-01-21T05:03:04.847Z,101025.98
2023-01-21T05:05:31.908Z,101034.76
2023-01-21T05:07:59.077Z,101047.20
2023-01-21T05:10:26.227Z,101055.25
2023-01-21T05:12:53.377Z,101059.86
2023-01-21T05:15:20.441Z,101058.27
2023-01-21T05:17:47.583Z,101054.41
2023-01-21T05:20:14.918Z,101039.73
2023-01-21T05:22:42.177Z,101042.98
2023-01-21T05:25:09.780Z,101050.34
2023-01-21T05:27:37.043Z,101061.77
2023-01-21T05:30:04.657Z,101062.96
2023-01-21T05:32:31.801Z,101068.27
2023-01-21T05:34:58.888Z,101073.06
2023-01-21T05:37:26.042Z,101064.20
2023-01-21T05:39:53.091Z,101077.78
2023-01-21T05:42:20.236Z,101078.37
2023-01-21T05:44:47.379Z,101098.00
2023-01-21T05:47:14.527Z,101123.36
2023-01-21T05:49:41.687Z,101129.84
2023-01-21T05:52:09.003Z,101113.70
2023-01-21T05:54:36.078Z,101098.29
2023-01-21T05:57:03.226Z,101100.77
2023-01-21T05:59:30.385Z,101121.47
2023-01-21T06:01:57.631Z,101139.86
2023-01-21T06:04:30.735Z,101149.49
2023-01-21T06:06:58.397Z,101144.96
2023-01-21T06:09:25.607Z,101142.63
2023-01-21T06:11:52.760Z,101136.61
2023-01-21T06:14:19.903Z,101124.59
2023-01-21T06:16:46.994Z,101114.96
2023-01-21T06:19:14.247Z,101104.86
2023-01-21T06:21:41.355Z,101110.17
2023-01-21T06:24:08.712Z,101125.15
2023-01-21T06:26:35.858Z,101130.34
2023-01-21T06:29:03.050Z,101127.36
2023-01-21T06:31:30.277Z,101129.50
2023-01-21T06:33:57.551Z,101127.02
2023-01-21T06:36:24.973Z,101130.84
2023-01-21T06:38:52.067Z,101124.77
2023-01-21T06:41:19.273Z,101119.01
2023-01-21T06:43:46.370Z,101128.66
2023-01-21T06:46:14.100Z,101122.42
2023-01-21T06:48:43.486Z,101117.77
2023-01-21T06:51:10.745Z,101118.66
2023-01-21T06:53:37.854Z,101118.02
2023-01-21T06:56:05.447Z,101115.77
2023-01-21T06:58:32.541Z,101125.04
2023-01-21T07:00:59.563Z,101131.91
2023-01-21T07:03:26.733Z,101135.29
2023-01-21T07:05:53.952Z,101143.10
2023-01-21T07:08:21.039Z,101134.59
2023-01-21T07:10:48.093Z,101141.08
2023-01-21T07:13:16.166Z,101144.95
2023-01-21T07:15:43.313Z,101143.46
2023-01-21T07:18:10.524Z,101148.11
2023-01-21T07:20:40.786Z,101147.92
2023-01-21T07:23:08.707Z,101142.20
2023-01-21T07:25:37.661Z,101136.64
2023-01-21T07:28:05.127Z,101133.01
2023-01-21T07:30:32.205Z,101128.91
2023-01-21T07:33:04.658Z,101129.17
2023-01-21T07:35:31.803Z,101133.30
2023-01-21T07:37:58.873Z,101124.34
2023-01-21T07:40:26.029Z,101126.33
2023-01-21T07:42:53.964Z,101133.46
2023-01-21T07:45:21.864Z,101142.15
2023-01-21T07:47:49.422Z,101136.16
2023-01-21T07:50:17.189Z,101138.52
2023-01-21T07:52:44.240Z,101137.96
2023-01-21T07:55:12.699Z,101141.35
2023-01-21T07:57:40.043Z,101138.70
2023-01-21T08:00:07.849Z,101137.50
2023-01-21T08:02:41.217Z,101143.13
2023-01-21T08:05:10.037Z,101143.31
2023-01-21T08:07:37.289Z,101147.42
2023-01-21T08:10:04.849Z,101147.49
2023-01-21T08:12:32.296Z,101147.29
2023-01-21T08:14:59.346Z,101140.36
2023-01-21T08:17:27.203Z,101139.27
2023-01-21T08:19:54.253Z,101136.35
2023-01-21T08:22:21.402Z,101139.51
2023-01-21T08:24:48.564Z,101136.71
2023-01-21T08:27:15.703Z,101133.73
2023-01-21T08:29:42.955Z,101138.65
2023-01-21T08:32:10.205Z,101142.02
2023-01-21T08:34:37.373Z,101143.31
2023-01-21T08:37:04.505Z,101143.34
2023-01-21T08:39:31.814Z,101153.33
2023-01-21T08:41:58.945Z,101150.22
2023-01-21T08:44:25.986Z,101148.02
2023-01-21T08:46:53.315Z,101150.52
2023-01-21T08:49:22.329Z,101144.67
2023-01-21T08:51:50.122Z,101148.90
2023-01-21T08:54:17.334Z,101146.19
2023-01-21T08:56:44.481Z,101145.80
2023-01-21T08:59:11.630Z,101147.36
2023-01-21T09:01:41.198Z,101141.08
2023-01-21T09:04:09.038Z,101132.75
2023-01-21T09:06:36.473Z,101128.19
2023-01-21T09:09:03.739Z,101123.08
2023-01-21T09:11:31.362Z,101114.88
2023-01-21T09:14:03.646Z,101112.60
2023-01-21T09:16:33.660Z,101114.48
2023-01-21T09:19:01.311Z,101118.85
2023-01-21T09:21:29.694Z,101125.54
2023-01-21T09:23:56.945Z,101134.74
2023-01-21T09:26:24.309Z,101138.98
2023-01-21T09:28:54.112Z,101136.66
2023-01-21T09:31:22.045Z,101133.55
2023-01-21T09:33:51.654Z,101136.73
2023-01-21T09:36:23.462Z,101136.80
2023-01-21T09:38:50.857Z,101137.33
2023-01-21T09:41:20.001Z,101141.16
2023-01-21T09:43:49.996Z,101142.99
2023-01-21T09:46:21.185Z,101126.89
2023-01-21T09:48:48.223Z,101129.54
2023-01-21T09:51:25.335Z,101132.59
2023-01-21T09:53:54.440Z,101123.38
2023-01-21T09:56:31.873Z,101116.60
2023-01-21T09:59:10.552Z,101118.37
2023-01-21T10:01:37.891Z,101121.67
2023-01-21T10:04:43.669Z,101128.99
2023-01-21T10:07:14.491Z,101131.60
2023-01-21T10:10:09.859Z,101140.81
2023-01-21T10:12:43.150Z,101138.06
2023-01-21T10:15:27.387Z,101138.60
2023-01-21T10:17:55.618Z,101141.02
2023-01-21T10:20:31.735Z,101139.15
2023-01-21T10:23:22.960Z,101146.45
2023-01-21T10:25:50.249Z,101156.38
2023-01-21T10:28:27.214Z,101154.42
2023-01-21T10:30:55.668Z,101158.91
2023-01-21T10:33:26.719Z,101160.25
2023-01-21T10:35:59.801Z,101170.15
2023-01-21T10:38:39.336Z,101166.99
2023-01-21T10:41:24.921Z,101185.91
2023-01-21T10:44:23.407Z,101191.73
2023-01-21T10:47:01.199Z,101197.29
2023-01-21T10:49:31.998Z,101202.13
2023-01-21T10:52:19.582Z,101211.00
2023-01-21T10:54:48.300Z,101229.29
2023-01-21T10:57:30.152Z,101229.86
2023-01-21T10:59:58.589Z,101234.32
2023-01-21T11:02:34.898Z,101230.92
2023-01-21T11:05:03.904Z,101248.45
2023-01-21T11:07:36.705Z,101250.73
2023-01-21T11:10:05.370Z,101247.99
2023-01-21T11:12:33.503Z,101246.95
2023-01-21T11:15:12.527Z,101249.48
2023-01-21T11:17:40.791Z,101253.84
2023-01-21T11:20:33.791Z,101261.34
2023-01-21T11:23:04.011Z,101261.13
2023-01-21T11:25:36.485Z,101260.17
2023-01-21T11:28:05.174Z,101265.83
2023-01-21T11:30:50.674Z,101264.44
2023-01-21T11:33:26.824Z,101273.21
2023-01-21T11:35:54.780Z,101278.85
2023-01-21T11:38:42.412Z,101285.76
2023-01-21T11:41:12.744Z,101278.68
2023-01-21T11:43:47.945Z,101291.45
2023-01-21T11:46:29.019Z,101294.11
2023-01-21T11:49:20.309Z,101297.48
2023-01-21T11:51:49.030Z,101289.27
2023-01-21T11:54:23.372Z,101296.44
2023-01-21T11:56:57.899Z,101294.27
2023-01-21T11:59:39.011Z,101294.99
2023-01-21T12:02:18.726Z,101292.18
2023-01-21T12:04:54.160Z,101295.30
2023-01-21T12:07:32.175Z,101306.73
2023-01-21T12:10:23.890Z,101312.88
2023-01-21T12:13:10.268Z,101318.34
2023-01-21T12:15:44.921Z,101315.42
2023-01-21T12:18:19.925Z,101309.98
2023-01-21T12:20:47.015Z,101299.83
2023-01-21T12:23:37.192Z,101304.55
2023-01-21T12:26:18.307Z,101309.33
2023-01-21T12:28:48.909Z,101311.61
2023-01-21T12:31:25.283Z,101312.27
2023-01-21T12:34:32.579Z,101315.89
2023-01-21T12:37:03.122Z,101329.13
2023-01-21T12:39:33.292Z,101335.23
2023-01-21T12:42:06.757Z,101330.96
2023-01-21T12:45:11.238Z,101333.96
2023-01-21T12:47:56.768Z,101338.60
2023-01-21T12:50:36.219Z,101353.94
2023-01-21T12:53:09.486Z,101358.58
2023-01-21T12:56:01.279Z,101357.70
2023-01-21T12:58:32.531Z,101361.98
2023-01-21T13:01:06.352Z,101373.66
2023-01-21T13:03:45.867Z,101379.45
2023-01-21T13:06:18.098Z,101381.36
2023-01-21T13:09:08.120Z,101378.27
2023-01-21T13:11:44.680Z,101376.81
2023-01-21T13:14:16.399Z,101380.07
2023-01-21T13:17:23.037Z,101384.87
2023-01-21T13:19:50.692Z,101391.98
2023-01-21T13:22:26.486Z,101390.69
2023-01-21T13:25:04.976Z,101400.15
2023-01-21T13:27:47.579Z,101401.65
2023-01-21T13:30:18.043Z,101393.95
2023-01-21T13:33:00.757Z,101401.09
2023-01-21T13:35:46.608Z,101407.86
2023-01-21T13:38:16.819Z,101409.16
2023-01-21T13:40:55.235Z,101411.45
2023-01-21T13:43:31.039Z,101410.09
2023-01-21T13:46:17.184Z,101423.31
2023-01-21T13:49:06.762Z,101421.35
2023-01-21T13:51:44.925Z,101417.81
2023-01-21T13:54:18.270Z,101419.89
2023-01-21T13:56:58.639Z,101425.11
2023-01-21T13:59:31.127Z,101422.10
2023-01-21T14:02:09.969Z,101431.41
2023-01-21T14:05:02.142Z,101440.96
2023-01-21T14:07:32.827Z,101436.86
2023-01-21T14:10:10.692Z,101438.06
2023-01-21T14:12:50.343Z,101443.50
2023-01-21T14:15:23.799Z,101437.23
2023-01-21T14:18:13.941Z,101434.64
2023-01-21T14:21:26.069Z,101437.01
2023-01-21T14:24:31.027Z,101441.70
2023-01-21T14:27:29.341Z,101442.79
2023-01-21T14:30:05.312Z,101443.34
2023-01-21T14:32:47.454Z,101450.03
2023-01-21T14:35:34.166Z,101451.84
2023-01-21T14:38:20.209Z,101454.90
2023-01-21T14:40:51.759Z,101457.23
2023-01-21T14:43:31.184Z,101465.96
2023-01-21T14:45:59.594Z,101467.85
2023-01-21T14:48:32.027Z,101477.59
2023-01-21T14:51:08.319Z,101479.30
2023-01-21T14:53:49.113Z,101479.55
2023-01-21T14:56:26.480Z,101468.64
2023-01-21T14:59:01.989Z,101465.48
2023-01-21T15:01:39.859Z,101466.83
2023-01-21T15:04:25.836Z,101470.55
2023-01-21T15:06:56.016Z,101474.81
2023-01-21T15:09:29.062Z,101482.20
2023-01-21T15:11:59.831Z,101488.02
2023-01-21T15:14:33.155Z,101490.38
2023-01-21T15:17:00.228Z,101495.08
2023-01-21T15:19:36.767Z,101489.45
2023-01-21T15:22:39.139Z,101500.08
2023-01-21T15:25:15.918Z,101502.54
2023-01-21T15:28:13.586Z,101500.11
2023-01-21T15:30:54.052Z,101497.40
2023-01-21T15:33:21.238Z,101506.39
2023-01-21T15:35:48.299Z,101510.02
2023-01-21T15:38:15.595Z,101511.73
2023-01-21T15:40:43.770Z,101510.84
2023-01-21T15:43:27.612Z,101518.02
2023-01-21T15:46:23.068Z,101522.21
2023-01-21T15:48:55.500Z,101523.96
2023-01-21T15:51:43.639Z,101530.05
2023-01-21T15:54:36.523Z,101530.67
2023-01-21T15:57:22.184Z,101526.46
2023-01-21T15:59:52.298Z,101525.89
2023-01-21T16:02:20.572Z,101532.79
2023-01-21T16:04:54.183Z,101540.52
2023-01-21T16:07:25.656Z,101536.17
2023-01-21T16:09:58.851Z,101531.53
2023-01-21T16:12:58.040Z,101536.64
2023-01-21T16:15:40.917Z,101538.34
2023-01-21T16:18:23.551Z,101536.64
2023-01-21T16:20:53.494Z,101535.49
2023-01-21T16:23:21.598Z,101536.63
2023-01-21T16:25:49.763Z,101538.09
2023-01-21T16:28:17.301Z,101541.10
2023-01-21T16:31:05.082Z,101546.23
2023-01-21T16:33:32.245Z,101550.20
2023-01-21T16:36:02.655Z,101558.69
2023-01-21T16:38:31.003Z,101562.38
2023-01-21T16:41:07.330Z,101565.15
2023-01-21T16:43:53.839Z,101566.20
2023-01-21T16:46:34.593Z,101569.86
2023-01-21T16:49:04.815Z,101573.03
2023-01-21T16:51:36.188Z,101571.98
2023-01-21T16:54:26.288Z,101575.34
2023-01-21T16:57:01.485Z,101580.20
2023-01-21T16:59:38.487Z,101577.69
2023-01-21T17:02:06.453Z,101576.60
2023-01-21T17:04:33.597Z,101576.02
2023-01-21T17:07:00.812Z,101583.34
2023-01-21T17:09:33.614Z,101585.45
2023-01-21T17:12:10.924Z,101589.89
2023-01-21T17:14:38.010Z,101593.80
2023-01-21T17:17:07.587Z,101595.91
2023-01-21T17:19:36.922Z,101602.19
2023-01-21T17:22:18.493Z,101607.52
2023-01-21T17:24:54.833Z,101605.70
2023-01-21T17:27:23.582Z,101607.23
2023-01-21T17:29:51.590Z,101605.66
2023-01-21T17:32:26.094Z,101609.50
2023-01-21T17:35:18.308Z,101606.41
2023-01-21T17:37:57.635Z,101606.70
2023-01-21T17:40:40.605Z,101604.34
2023-01-21T17:43:21.132Z,101594.52
2023-01-21T17:45:49.188Z,101595.16
2023-01-21T17:48:36.577Z,101593.69
2023-01-21T17:51:08.018Z,101591.35
2023-01-21T17:53:41.321Z,101590.05
2023-01-21T17:56:09.009Z,101588.25
2023-01-21T17:58:52.373Z,101585.17
2023-01-21T18:01:20.116Z,101588.86
2023-01-21T18:03:47.543Z,101585.81
2023-01-21T18:06:24.940Z,101588.34
2023-01-21T18:08:53.024Z,101584.35
2023-01-21T18:11:20.461Z,101586.77
2023-01-21T18:13:47.904Z,101590.08
2023-01-21T18:16:15.395Z,101591.88
2023-01-21T18:18:42.619Z,101588.85
2023-01-21T18:21:18.394Z,101587.80
2023-01-21T18:23:45.690Z,101584.88
2023-01-21T18:26:27.482Z,101588.07
2023-01-21T18:28:54.967Z,101586.98
2023-01-21T18:31:23.031Z,101585.09
2023-01-21T18:33:50.290Z,101584.05
2023-01-21T18:36:17.440Z,101587.52
2023-01-21T18:38:45.567Z,101586.64
2023-01-21T18:41:13.872Z,101584.91
2023-01-21T18:43:42.284Z,101585.63
2023-01-21T18:46:12.381Z,101585.70
2023-01-21T18:48:39.541Z,101581.80
2023-01-21T18:51:06.873Z,101581.45
2023-01-21T18:53:34.350Z,101579.74
2023-01-21T18:56:01.707Z,101578.92
2023-01-21T18:58:29.061Z,101584.20
2023-01-21T19:00:56.652Z,101586.94
2023-01-21T19:03:24.064Z,101579.87
2023-01-21T19:05:51.667Z,101592.18
2023-01-21T19:08:22.148Z,101598.64
2023-01-21T19:10:49.330Z,101602.99
2023-01-21T19:13:16.972Z,101602.72
2023-01-21T19:15:44.454Z,101608.59
2023-01-21T19:18:12.724Z,101610.54
2023-01-21T19:20:43.277Z,101614.98
2023-01-21T19:23:18.658Z,101611.68
2023-01-21T19:25:51.930Z,101617.20
2023-01-21T19:28:19.095Z,101622.40
2023-01-21T19:30:46.634Z,101622.30
2023-01-21T19:33:14.110Z,101624.09
2023-01-21T19:35:45.389Z,101627.77
2023-01-21T19:38:15.307Z,101632.27
2023-01-21T19:40:42.720Z,101629.48
2023-01-21T19:43:17.125Z,101628.86
2023-01-21T19:45:45.690Z,101631.98
2023-01-21T19:48:16.946Z,101631.48
2023-01-21T19:50:44.272Z,101632.69
2023-01-21T19:53:15.860Z,101638.44
2023-01-21T19:55:43.718Z,101635.68
2023-01-21T19:58:19.674Z,101633.40
2023-01-21T20:00:51.338Z,101629.84
2023-01-21T20:03:19.085Z,101629.35
2023-01-21T20:05:46.833Z,101631.42
2023-01-21T20:08:15.619Z,101635.23
2023-01-21T20:10:43.584Z,101628.67
2023-01-21T20:13:12.287Z,101631.46
2023-01-21T20:15:39.550Z,101633.27
2023-01-21T20:18:06.678Z,101639.70
2023-01-21T20:20:33.947Z,101639.86
2023-01-21T20:23:01.225Z,101640.03
2023-01-21T20:25:48.505Z,101639.66
2023-01-21T20:28:20.906Z,101645.32
2023-01-21T20:30:48.787Z,101648.13
2023-01-21T20:33:20.579Z,101648.08
2023-01-21T20:35:48.474Z,101651.59
2023-01-21T20:38:16.543Z,101652.04
2023-01-21T20:40:43.756Z,101648.08
2023-01-21T20:43:10.948Z,101650.77
2023-01-21T20:45:41.966Z,101652.75
2023-01-21T20:48:25.311Z,101655.21
2023-01-21T20:50:53.023Z,101661.89
2023-01-21T20:53:20.354Z,101663.43
2023-01-21T20:55:49.773Z,101665.13
2023-01-21T20:58:18.353Z,101662.35
2023-01-21T21:00:46.094Z,101663.27
2023-01-21T21:03:18.133Z,101664.27
2023-01-21T21:05:46.220Z,101660.70
2023-01-21T21:08:19.022Z,101664.56
2023-01-21T21:10:46.538Z,101663.83
2023-01-21T21:13:13.844Z,101666.27
2023-01-21T21:15:41.273Z,101665.68
2023-01-21T21:18:12.111Z,101666.17
2023-01-21T21:20:40.017Z,101660.80
2023-01-21T21:23:07.951Z,101658.21
2023-01-21T21:25:38.400Z,101657.38
2023-01-21T21:28:05.521Z,101664.22
2023-01-21T21:30:33.429Z,101664.13
2023-01-21T21:33:00.976Z,101660.69
2023-01-21T21:35:29.680Z,101661.17
2023-01-21T21:37:58.423Z,101656.65
2023-01-21T21:40:27.000Z,101660.74
2023-01-21T21:43:12.936Z,101659.73
2023-01-21T21:46:00.557Z,101662.22
2023-01-21T21:48:39.873Z,101656.42
2023-01-21T21:51:11.349Z,101661.20
2023-01-21T21:53:39.327Z,101666.44
2023-01-21T21:56:08.898Z,101668.95
2023-01-21T21:58:36.051Z,101667.58
2023-01-21T22:04:04.063Z,101660.96
2023-01-21T22:06:31.419Z,101661.55
2023-01-21T22:08:58.988Z,101662.98
2023-01-21T22:11:26.822Z,101666.10
2023-01-21T22:13:54.201Z,101663.38
2023-01-21T22:16:23.937Z,101661.46
2023-01-21T22:18:51.782Z,101665.63
2023-01-21T22:21:29.161Z,101664.40
2023-01-21T22:23:56.566Z,101669.34
2023-01-21T22:26:24.712Z,101669.66
2023-01-21T22:28:51.953Z,101673.10
2023-01-21T22:31:26.772Z,101673.74
